sensor_id;sensor_type;location;lat;lon;timestamp;temperature;humidity
13673;DHT22;6909;52.202;9.876;2022-08-20T00:00:52;18.50;1.00
13673;DHT22;6909;52.202;9.876;2022-08-20T00:03:21;18.50;1.00
13673;DHT22;6909;52.202;9.876;2022-08-20T00:05:53;18.50;1.00
13673;DHT22;6909;52.202;9.876;2022-08-20T00:08:21;18.50;1.00
13673;DHT22;6909;52.202;9.876;2022-08-20T00:10:49;18.50;1.00
13673;DHT22;6909;52.202;9.876;2022-08-20T00:13:19;18.50;1.00
13673;DHT22;6909;52.202;9.876;2022-08-20T00:15:47;18.60;1.00
13673;DHT22;6909;52.202;9.876;2022-08-20T00:18:14;18.60;1.00
13673;DHT22;6909;52.202;9.876;2022-08-20T00:20:44;18.50;1.00
13673;DHT22;6909;52.202;9.876;2022-08-20T00:23:13;18.40;1.00
13673;DHT22;6909;52.202;9.876;2022-08-20T00:25:41;18.40;1.00
13673;DHT22;6909;52.202;9.876;2022-08-20T00:28:09;18.30;1.00
13673;DHT22;6909;52.202;9.876;2022-08-20T00:30:38;18.20;44.00
13673;DHT22;6909;52.202;9.876;2022-08-20T00:33:07;18.20;58.80
13673;DHT22;6909;52.202;9.876;2022-08-20T00:35:37;18.20;32.00
13673;DHT22;6909;52.202;9.876;2022-08-20T00:38:05;18.30;1.00
13673;DHT22;6909;52.202;9.876;2022-08-20T00:40:37;18.30;1.00
13673;DHT22;6909;52.202;9.876;2022-08-20T00:43:12;18.40;1.00
13673;DHT22;6909;52.202;9.876;2022-08-20T00:45:49;18.40;1.00
13673;DHT22;6909;52.202;9.876;2022-08-20T00:48:19;18.50;1.00
13673;DHT22;6909;52.202;9.876;2022-08-20T00:50:46;18.40;1.00
13673;DHT22;6909;52.202;9.876;2022-08-20T00:53:13;18.50;1.00
13673;DHT22;6909;52.202;9.876;2022-08-20T00:55:41;18.50;1.00
13673;DHT22;6909;52.202;9.876;2022-08-20T00:58:08;18.40;1.00
13673;DHT22;6909;52.202;9.876;2022-08-20T01:00:37;18.40;1.00
13673;DHT22;6909;52.202;9.876;2022-08-20T01:03:06;18.30;1.00
13673;DHT22;6909;52.202;9.876;2022-08-20T01:05:34;18.20;1.00
13673;DHT22;6909;52.202;9.876;2022-08-20T01:08:01;18.20;1.00
13673;DHT22;6909;52.202;9.876;2022-08-20T01:10:32;18.20;1.00
13673;DHT22;6909;52.202;9.876;2022-08-20T01:13:05;18.20;1.00
13673;DHT22;6909;52.202;9.876;2022-08-20T01:15:36;18.10;1.00
13673;DHT22;6909;52.202;9.876;2022-08-20T01:18:04;18.10;1.00
13673;DHT22;6909;52.202;9.876;2022-08-20T01:20:37;18.20;1.00
13673;DHT22;6909;52.202;9.876;2022-08-20T01:26:30;18.20;1.00
13673;DHT22;6909;52.202;9.876;2022-08-20T01:29:00;18.20;1.00
13673;DHT22;6909;52.202;9.876;2022-08-20T01:31:29;18.20;1.00
13673;DHT22;6909;52.202;9.876;2022-08-20T01:33:59;18.30;1.00
13673;DHT22;6909;52.202;9.876;2022-08-20T01:36:29;18.20;1.00
13673;DHT22;6909;52.202;9.876;2022-08-20T01:38:56;18.10;1.00
13673;DHT22;6909;52.202;9.876;2022-08-20T01:41:48;18.10;1.00
13673;DHT22;6909;52.202;9.876;2022-08-20T01:44:18;18.00;1.00
13673;DHT22;6909;52.202;9.876;2022-08-20T01:46:47;17.90;1.00
13673;DHT22;6909;52.202;9.876;2022-08-20T01:49:17;17.80;1.00
13673;DHT22;6909;52.202;9.876;2022-08-20T01:51:45;17.70;1.00
13673;DHT22;6909;52.202;9.876;2022-08-20T01:54:11;17.70;1.00
13673;DHT22;6909;52.202;9.876;2022-08-20T01:56:52;17.60;1.00
13673;DHT22;6909;52.202;9.876;2022-08-20T01:59:20;17.50;1.00
13673;DHT22;6909;52.202;9.876;2022-08-20T02:01:47;17.50;1.00
13673;DHT22;6909;52.202;9.876;2022-08-20T02:04:15;17.50;1.00
13673;DHT22;6909;52.202;9.876;2022-08-20T02:06:45;17.40;1.00
13673;DHT22;6909;52.202;9.876;2022-08-20T02:09:12;17.40;1.00
13673;DHT22;6909;52.202;9.876;2022-08-20T02:11:39;17.40;1.00
13673;DHT22;6909;52.202;9.876;2022-08-20T02:14:13;17.50;1.00
13673;DHT22;6909;52.202;9.876;2022-08-20T02:16:42;17.50;1.00
13673;DHT22;6909;52.202;9.876;2022-08-20T02:19:21;17.50;1.00
13673;DHT22;6909;52.202;9.876;2022-08-20T02:21:50;17.50;10.00
13673;DHT22;6909;52.202;9.876;2022-08-20T02:24:18;17.50;99.90
13673;DHT22;6909;52.202;9.876;2022-08-20T02:26:45;17.50;99.90
13673;DHT22;6909;52.202;9.876;2022-08-20T02:29:14;17.50;99.90
13673;DHT22;6909;52.202;9.876;2022-08-20T02:31:42;17.40;1.00
13673;DHT22;6909;52.202;9.876;2022-08-20T02:34:10;17.40;1.00
13673;DHT22;6909;52.202;9.876;2022-08-20T02:36:38;17.40;1.00
13673;DHT22;6909;52.202;9.876;2022-08-20T02:39:07;17.40;1.00
13673;DHT22;6909;52.202;9.876;2022-08-20T02:41:34;17.50;1.00
13673;DHT22;6909;52.202;9.876;2022-08-20T02:44:01;17.50;1.00
13673;DHT22;6909;52.202;9.876;2022-08-20T02:46:29;17.50;1.00
13673;DHT22;6909;52.202;9.876;2022-08-20T02:48:56;17.50;1.00
13673;DHT22;6909;52.202;9.876;2022-08-20T02:51:23;17.50;1.00
13673;DHT22;6909;52.202;9.876;2022-08-20T02:53:50;17.60;1.00
13673;DHT22;6909;52.202;9.876;2022-08-20T02:56:17;17.60;1.00
13673;DHT22;6909;52.202;9.876;2022-08-20T02:58:44;17.60;1.00
13673;DHT22;6909;52.202;9.876;2022-08-20T03:01:13;17.60;1.00
13673;DHT22;6909;52.202;9.876;2022-08-20T03:03:42;17.60;99.90
13673;DHT22;6909;52.202;9.876;2022-08-20T03:06:10;17.50;99.90
13673;DHT22;6909;52.202;9.876;2022-08-20T03:08:36;17.50;99.90
13673;DHT22;6909;52.202;9.876;2022-08-20T03:11:05;17.50;1.00
13673;DHT22;6909;52.202;9.876;2022-08-20T03:13:32;17.50;1.00
13673;DHT22;6909;52.202;9.876;2022-08-20T03:16:00;17.50;1.00
13673;DHT22;6909;52.202;9.876;2022-08-20T03:18:30;17.60;1.00
13673;DHT22;6909;52.202;9.876;2022-08-20T03:20:59;17.60;1.00
13673;DHT22;6909;52.202;9.876;2022-08-20T03:23:26;17.60;1.00
13673;DHT22;6909;52.202;9.876;2022-08-20T03:25:52;17.60;1.00
13673;DHT22;6909;52.202;9.876;2022-08-20T03:28:20;17.70;1.00
13673;DHT22;6909;52.202;9.876;2022-08-20T03:30:47;17.70;1.00
13673;DHT22;6909;52.202;9.876;2022-08-20T03:33:15;17.80;1.00
13673;DHT22;6909;52.202;9.876;2022-08-20T03:35:44;17.80;1.00
13673;DHT22;6909;52.202;9.876;2022-08-20T03:38:16;17.90;1.00
13673;DHT22;6909;52.202;9.876;2022-08-20T03:40:43;17.80;1.00
13673;DHT22;6909;52.202;9.876;2022-08-20T03:43:10;17.90;1.00
13673;DHT22;6909;52.202;9.876;2022-08-20T03:45:39;17.90;1.00
13673;DHT22;6909;52.202;9.876;2022-08-20T03:48:07;17.90;1.00
13673;DHT22;6909;52.202;9.876;2022-08-20T03:50:34;17.80;1.00
13673;DHT22;6909;52.202;9.876;2022-08-20T03:53:02;17.80;1.00
13673;DHT22;6909;52.202;9.876;2022-08-20T03:55:32;17.80;1.00
13673;DHT22;6909;52.202;9.876;2022-08-20T03:58:00;17.80;1.00
13673;DHT22;6909;52.202;9.876;2022-08-20T04:00:30;17.80;1.00
13673;DHT22;6909;52.202;9.876;2022-08-20T04:02:57;17.80;1.00
13673;DHT22;6909;52.202;9.876;2022-08-20T04:05:26;17.80;1.00
13673;DHT22;6909;52.202;9.876;2022-08-20T04:07:53;17.80;1.00
13673;DHT22;6909;52.202;9.876;2022-08-20T04:10:19;17.90;1.00
13673;DHT22;6909;52.202;9.876;2022-08-20T04:12:47;17.90;1.00
13673;DHT22;6909;52.202;9.876;2022-08-20T04:15:15;17.90;1.00
13673;DHT22;6909;52.202;9.876;2022-08-20T04:17:44;17.90;1.00
13673;DHT22;6909;52.202;9.876;2022-08-20T04:20:13;17.90;1.00
13673;DHT22;6909;52.202;9.876;2022-08-20T04:22:41;17.90;1.00
13673;DHT22;6909;52.202;9.876;2022-08-20T04:25:08;18.00;1.00
13673;DHT22;6909;52.202;9.876;2022-08-20T04:27:35;18.00;1.00
13673;DHT22;6909;52.202;9.876;2022-08-20T04:30:07;18.00;1.00
13673;DHT22;6909;52.202;9.876;2022-08-20T04:32:35;18.00;1.00
13673;DHT22;6909;52.202;9.876;2022-08-20T04:35:02;18.00;1.00
13673;DHT22;6909;52.202;9.876;2022-08-20T04:37:31;18.10;1.00
13673;DHT22;6909;52.202;9.876;2022-08-20T04:40:03;18.10;1.00
13673;DHT22;6909;52.202;9.876;2022-08-20T04:42:47;18.10;1.00
13673;DHT22;6909;52.202;9.876;2022-08-20T04:45:15;18.10;1.00
13673;DHT22;6909;52.202;9.876;2022-08-20T04:47:43;18.10;1.00
13673;DHT22;6909;52.202;9.876;2022-08-20T04:50:11;18.10;1.00
13673;DHT22;6909;52.202;9.876;2022-08-20T04:52:38;18.10;1.00
13673;DHT22;6909;52.202;9.876;2022-08-20T04:55:06;18.10;1.00
13673;DHT22;6909;52.202;9.876;2022-08-20T04:57:34;18.20;1.00
13673;DHT22;6909;52.202;9.876;2022-08-20T05:00:01;18.20;1.00
13673;DHT22;6909;52.202;9.876;2022-08-20T05:02:29;18.20;1.00
13673;DHT22;6909;52.202;9.876;2022-08-20T05:04:56;18.20;1.00
13673;DHT22;6909;52.202;9.876;2022-08-20T05:07:22;18.20;1.00
13673;DHT22;6909;52.202;9.876;2022-08-20T05:09:50;18.20;1.00
13673;DHT22;6909;52.202;9.876;2022-08-20T05:12:17;18.20;1.00
13673;DHT22;6909;52.202;9.876;2022-08-20T05:14:44;18.20;63.10
13673;DHT22;6909;52.202;9.876;2022-08-20T05:17:11;18.20;7.10
13673;DHT22;6909;52.202;9.876;2022-08-20T05:19:40;18.30;83.00
13673;DHT22;6909;52.202;9.876;2022-08-20T05:22:07;18.30;99.90
13673;DHT22;6909;52.202;9.876;2022-08-20T05:24:33;18.20;99.90
13673;DHT22;6909;52.202;9.876;2022-08-20T05:27:00;18.20;99.90
13673;DHT22;6909;52.202;9.876;2022-08-20T05:29:27;18.30;99.90
13673;DHT22;6909;52.202;9.876;2022-08-20T05:31:53;18.40;99.90
13673;DHT22;6909;52.202;9.876;2022-08-20T05:34:21;18.40;99.90
13673;DHT22;6909;52.202;9.876;2022-08-20T05:36:50;18.40;1.00
13673;DHT22;6909;52.202;9.876;2022-08-20T05:39:18;18.40;1.00
13673;DHT22;6909;52.202;9.876;2022-08-20T05:41:45;18.40;1.00
13673;DHT22;6909;52.202;9.876;2022-08-20T05:44:17;18.40;1.00
13673;DHT22;6909;52.202;9.876;2022-08-20T05:46:45;18.40;1.00
13673;DHT22;6909;52.202;9.876;2022-08-20T05:49:14;18.40;1.00
13673;DHT22;6909;52.202;9.876;2022-08-20T05:51:42;18.40;8.80
13673;DHT22;6909;52.202;9.876;2022-08-20T05:54:10;18.40;99.90
13673;DHT22;6909;52.202;9.876;2022-08-20T05:56:37;18.40;1.00
13673;DHT22;6909;52.202;9.876;2022-08-20T05:59:06;18.50;1.00
13673;DHT22;6909;52.202;9.876;2022-08-20T06:01:34;18.50;1.00
13673;DHT22;6909;52.202;9.876;2022-08-20T06:04:01;18.50;99.90
13673;DHT22;6909;52.202;9.876;2022-08-20T06:06:42;18.70;1.00
13673;DHT22;6909;52.202;9.876;2022-08-20T06:09:10;18.80;1.00
13673;DHT22;6909;52.202;9.876;2022-08-20T06:11:37;19.00;1.00
13673;DHT22;6909;52.202;9.876;2022-08-20T06:14:04;19.20;99.90
13673;DHT22;6909;52.202;9.876;2022-08-20T06:16:30;19.30;1.00
13673;DHT22;6909;52.202;9.876;2022-08-20T06:18:57;19.50;1.00
13673;DHT22;6909;52.202;9.876;2022-08-20T06:21:24;19.70;1.00
13673;DHT22;6909;52.202;9.876;2022-08-20T06:23:51;19.90;1.00
13673;DHT22;6909;52.202;9.876;2022-08-20T06:26:19;20.00;1.00
13673;DHT22;6909;52.202;9.876;2022-08-20T06:28:45;20.00;1.00
13673;DHT22;6909;52.202;9.876;2022-08-20T06:31:12;20.30;1.00
13673;DHT22;6909;52.202;9.876;2022-08-20T06:33:38;20.40;1.00
13673;DHT22;6909;52.202;9.876;2022-08-20T06:36:05;20.50;1.00
13673;DHT22;6909;52.202;9.876;2022-08-20T06:38:32;20.70;99.90
13673;DHT22;6909;52.202;9.876;2022-08-20T06:40:59;21.00;99.90
13673;DHT22;6909;52.202;9.876;2022-08-20T06:43:28;21.00;99.90
13673;DHT22;6909;52.202;9.876;2022-08-20T06:45:55;21.20;99.90
13673;DHT22;6909;52.202;9.876;2022-08-20T06:48:22;21.20;99.90
13673;DHT22;6909;52.202;9.876;2022-08-20T06:50:49;21.30;60.20
13673;DHT22;6909;52.202;9.876;2022-08-20T06:53:18;21.50;1.00
13673;DHT22;6909;52.202;9.876;2022-08-20T06:55:48;21.70;1.00
13673;DHT22;6909;52.202;9.876;2022-08-20T06:58:15;21.90;1.00
13673;DHT22;6909;52.202;9.876;2022-08-20T07:00:45;21.90;1.00
13673;DHT22;6909;52.202;9.876;2022-08-20T07:03:12;22.00;1.00
13673;DHT22;6909;52.202;9.876;2022-08-20T07:05:41;22.20;1.00
13673;DHT22;6909;52.202;9.876;2022-08-20T07:08:09;22.40;1.00
13673;DHT22;6909;52.202;9.876;2022-08-20T07:10:37;23.20;1.00
13673;DHT22;6909;52.202;9.876;2022-08-20T07:13:04;23.90;1.00
13673;DHT22;6909;52.202;9.876;2022-08-20T07:15:31;24.30;1.00
13673;DHT22;6909;52.202;9.876;2022-08-20T07:18:01;25.00;1.00
13673;DHT22;6909;52.202;9.876;2022-08-20T07:20:30;25.50;99.90
13673;DHT22;6909;52.202;9.876;2022-08-20T07:22:57;25.70;99.90
13673;DHT22;6909;52.202;9.876;2022-08-20T07:25:25;25.70;99.90
13673;DHT22;6909;52.202;9.876;2022-08-20T07:27:52;25.10;1.00
13673;DHT22;6909;52.202;9.876;2022-08-20T07:30:26;24.60;1.00
13673;DHT22;6909;52.202;9.876;2022-08-20T07:33:11;24.10;1.00
13673;DHT22;6909;52.202;9.876;2022-08-20T07:35:39;23.70;1.00
13673;DHT22;6909;52.202;9.876;2022-08-20T07:38:06;23.60;1.00
13673;DHT22;6909;52.202;9.876;2022-08-20T07:40:39;23.40;1.00
13673;DHT22;6909;52.202;9.876;2022-08-20T07:43:07;23.60;1.00
13673;DHT22;6909;52.202;9.876;2022-08-20T07:45:35;23.70;1.00
13673;DHT22;6909;52.202;9.876;2022-08-20T07:48:07;23.60;1.00
13673;DHT22;6909;52.202;9.876;2022-08-20T07:50:35;23.50;1.00
13673;DHT22;6909;52.202;9.876;2022-08-20T07:53:02;23.50;1.00
13673;DHT22;6909;52.202;9.876;2022-08-20T07:55:29;23.60;1.00
13673;DHT22;6909;52.202;9.876;2022-08-20T07:57:57;23.60;1.00
13673;DHT22;6909;52.202;9.876;2022-08-20T08:00:25;23.50;1.00
13673;DHT22;6909;52.202;9.876;2022-08-20T08:02:51;24.00;1.00
13673;DHT22;6909;52.202;9.876;2022-08-20T08:05:18;24.70;1.00
13673;DHT22;6909;52.202;9.876;2022-08-20T08:07:46;25.00;1.00
13673;DHT22;6909;52.202;9.876;2022-08-20T08:10:16;25.30;1.00
13673;DHT22;6909;52.202;9.876;2022-08-20T08:12:47;26.10;1.00
13673;DHT22;6909;52.202;9.876;2022-08-20T08:15:18;25.90;1.00
13673;DHT22;6909;52.202;9.876;2022-08-20T08:17:47;26.30;1.00
13673;DHT22;6909;52.202;9.876;2022-08-20T08:20:15;26.30;1.00
13673;DHT22;6909;52.202;9.876;2022-08-20T08:22:43;26.40;1.00
13673;DHT22;6909;52.202;9.876;2022-08-20T08:25:13;26.30;1.00
13673;DHT22;6909;52.202;9.876;2022-08-20T08:27:41;26.10;1.00
13673;DHT22;6909;52.202;9.876;2022-08-20T08:30:09;26.50;1.00
13673;DHT22;6909;52.202;9.876;2022-08-20T08:32:37;25.90;99.90
13673;DHT22;6909;52.202;9.876;2022-08-20T08:35:25;25.30;99.90
13673;DHT22;6909;52.202;9.876;2022-08-20T08:37:52;24.90;99.90
13673;DHT22;6909;52.202;9.876;2022-08-20T08:40:20;24.60;99.90
13673;DHT22;6909;52.202;9.876;2022-08-20T08:42:51;24.70;99.90
13673;DHT22;6909;52.202;9.876;2022-08-20T08:45:24;24.80;99.90
13673;DHT22;6909;52.202;9.876;2022-08-20T08:47:54;24.50;99.90
13673;DHT22;6909;52.202;9.876;2022-08-20T08:50:25;24.70;99.90
13673;DHT22;6909;52.202;9.876;2022-08-20T08:52:53;24.80;99.90
13673;DHT22;6909;52.202;9.876;2022-08-20T08:55:23;24.60;99.90
13673;DHT22;6909;52.202;9.876;2022-08-20T08:57:53;25.00;99.90
13673;DHT22;6909;52.202;9.876;2022-08-20T09:00:21;25.00;99.90
13673;DHT22;6909;52.202;9.876;2022-08-20T09:02:53;25.30;99.90
13673;DHT22;6909;52.202;9.876;2022-08-20T09:05:22;25.40;99.90
13673;DHT22;6909;52.202;9.876;2022-08-20T09:07:52;25.50;99.90
13673;DHT22;6909;52.202;9.876;2022-08-20T09:10:23;25.50;99.90
13673;DHT22;6909;52.202;9.876;2022-08-20T09:12:49;25.80;99.90
13673;DHT22;6909;52.202;9.876;2022-08-20T09:15:16;26.20;99.90
13673;DHT22;6909;52.202;9.876;2022-08-20T09:17:43;26.20;99.90
13673;DHT22;6909;52.202;9.876;2022-08-20T09:20:10;26.10;99.90
13673;DHT22;6909;52.202;9.876;2022-08-20T09:22:36;26.30;99.90
13673;DHT22;6909;52.202;9.876;2022-08-20T09:25:04;26.30;99.90
13673;DHT22;6909;52.202;9.876;2022-08-20T09:27:32;26.40;99.90
13673;DHT22;6909;52.202;9.876;2022-08-20T09:29:59;26.00;99.90
13673;DHT22;6909;52.202;9.876;2022-08-20T09:32:25;26.20;99.90
13673;DHT22;6909;52.202;9.876;2022-08-20T09:34:53;26.00;99.90
13673;DHT22;6909;52.202;9.876;2022-08-20T09:37:22;25.90;99.90
13673;DHT22;6909;52.202;9.876;2022-08-20T09:39:49;25.90;99.90
13673;DHT22;6909;52.202;9.876;2022-08-20T09:42:17;25.90;99.90
13673;DHT22;6909;52.202;9.876;2022-08-20T09:44:46;25.80;99.90
13673;DHT22;6909;52.202;9.876;2022-08-20T09:47:13;25.80;99.90
13673;DHT22;6909;52.202;9.876;2022-08-20T09:49:41;25.80;99.90
13673;DHT22;6909;52.202;9.876;2022-08-20T09:52:12;25.90;99.90
13673;DHT22;6909;52.202;9.876;2022-08-20T09:54:42;25.70;99.90
13673;DHT22;6909;52.202;9.876;2022-08-20T09:57:09;25.50;99.90
13673;DHT22;6909;52.202;9.876;2022-08-20T09:59:37;25.90;99.90
13673;DHT22;6909;52.202;9.876;2022-08-20T10:02:05;25.70;99.90
13673;DHT22;6909;52.202;9.876;2022-08-20T10:04:32;25.60;99.90
13673;DHT22;6909;52.202;9.876;2022-08-20T10:06:58;25.70;99.90
13673;DHT22;6909;52.202;9.876;2022-08-20T10:09:25;25.50;99.90
13673;DHT22;6909;52.202;9.876;2022-08-20T10:11:51;25.60;99.90
13673;DHT22;6909;52.202;9.876;2022-08-20T10:14:18;25.30;99.90
13673;DHT22;6909;52.202;9.876;2022-08-20T10:16:45;25.10;99.90
13673;DHT22;6909;52.202;9.876;2022-08-20T10:19:12;25.00;99.90
13673;DHT22;6909;52.202;9.876;2022-08-20T10:21:39;24.80;99.90
13673;DHT22;6909;52.202;9.876;2022-08-20T10:24:06;24.70;99.90
13673;DHT22;6909;52.202;9.876;2022-08-20T10:26:33;24.80;99.90
13673;DHT22;6909;52.202;9.876;2022-08-20T10:28:59;24.90;99.90
13673;DHT22;6909;52.202;9.876;2022-08-20T10:31:27;25.00;99.90
13673;DHT22;6909;52.202;9.876;2022-08-20T10:33:54;25.30;99.90
13673;DHT22;6909;52.202;9.876;2022-08-20T10:36:23;25.50;99.90
13673;DHT22;6909;52.202;9.876;2022-08-20T10:38:49;25.50;99.90
13673;DHT22;6909;52.202;9.876;2022-08-20T10:41:16;25.60;99.90
13673;DHT22;6909;52.202;9.876;2022-08-20T10:43:44;25.80;99.90
13673;DHT22;6909;52.202;9.876;2022-08-20T10:46:11;25.90;99.90
13673;DHT22;6909;52.202;9.876;2022-08-20T10:48:37;26.10;99.90
13673;DHT22;6909;52.202;9.876;2022-08-20T10:51:04;25.90;99.90
13673;DHT22;6909;52.202;9.876;2022-08-20T10:53:32;25.50;99.90
13673;DHT22;6909;52.202;9.876;2022-08-20T10:55:59;25.50;99.90
13673;DHT22;6909;52.202;9.876;2022-08-20T10:58:26;25.60;99.90
13673;DHT22;6909;52.202;9.876;2022-08-20T11:00:53;25.80;99.90
13673;DHT22;6909;52.202;9.876;2022-08-20T11:03:20;25.60;99.90
13673;DHT22;6909;52.202;9.876;2022-08-20T11:05:47;25.90;99.90
13673;DHT22;6909;52.202;9.876;2022-08-20T11:08:14;25.80;99.90
13673;DHT22;6909;52.202;9.876;2022-08-20T11:10:42;25.90;99.90
13673;DHT22;6909;52.202;9.876;2022-08-20T11:13:09;26.20;99.90
13673;DHT22;6909;52.202;9.876;2022-08-20T11:15:39;26.00;99.90
13673;DHT22;6909;52.202;9.876;2022-08-20T11:18:07;25.90;99.90
13673;DHT22;6909;52.202;9.876;2022-08-20T11:20:34;25.90;99.90
13673;DHT22;6909;52.202;9.876;2022-08-20T11:23:01;25.30;96.90
13673;DHT22;6909;52.202;9.876;2022-08-20T11:25:28;24.40;99.90
13673;DHT22;6909;52.202;9.876;2022-08-20T11:27:57;23.40;99.90
13673;DHT22;6909;52.202;9.876;2022-08-20T11:30:26;23.00;99.90
13673;DHT22;6909;52.202;9.876;2022-08-20T11:32:54;22.30;1.00
13673;DHT22;6909;52.202;9.876;2022-08-20T11:35:21;21.90;1.00
13673;DHT22;6909;52.202;9.876;2022-08-20T11:37:49;21.40;1.00
13673;DHT22;6909;52.202;9.876;2022-08-20T11:40:15;20.90;99.90
13673;DHT22;6909;52.202;9.876;2022-08-20T11:42:42;20.60;1.00
13673;DHT22;6909;52.202;9.876;2022-08-20T11:45:10;20.30;1.00
13673;DHT22;6909;52.202;9.876;2022-08-20T11:47:37;20.00;1.00
13673;DHT22;6909;52.202;9.876;2022-08-20T11:50:06;19.90;99.90
13673;DHT22;6909;52.202;9.876;2022-08-20T11:52:33;19.80;99.90
13673;DHT22;6909;52.202;9.876;2022-08-20T11:55:00;19.80;99.90
13673;DHT22;6909;52.202;9.876;2022-08-20T11:57:29;19.70;99.90
13673;DHT22;6909;52.202;9.876;2022-08-20T11:59:58;19.70;99.90
13673;DHT22;6909;52.202;9.876;2022-08-20T12:02:27;19.70;99.90
13673;DHT22;6909;52.202;9.876;2022-08-20T12:04:55;19.60;99.90
13673;DHT22;6909;52.202;9.876;2022-08-20T12:07:23;19.60;99.90
13673;DHT22;6909;52.202;9.876;2022-08-20T12:09:51;19.60;99.90
13673;DHT22;6909;52.202;9.876;2022-08-20T12:12:19;19.60;99.90
13673;DHT22;6909;52.202;9.876;2022-08-20T12:14:47;19.70;99.90
13673;DHT22;6909;52.202;9.876;2022-08-20T12:17:17;19.70;99.90
13673;DHT22;6909;52.202;9.876;2022-08-20T12:19:47;19.90;99.90
13673;DHT22;6909;52.202;9.876;2022-08-20T12:22:13;20.20;99.90
13673;DHT22;6909;52.202;9.876;2022-08-20T12:24:40;20.50;99.90
13673;DHT22;6909;52.202;9.876;2022-08-20T12:27:08;20.70;99.90
13673;DHT22;6909;52.202;9.876;2022-08-20T12:29:35;20.70;99.90
13673;DHT22;6909;52.202;9.876;2022-08-20T12:32:03;20.90;99.90
13673;DHT22;6909;52.202;9.876;2022-08-20T12:34:31;21.20;99.90
13673;DHT22;6909;52.202;9.876;2022-08-20T12:37:00;21.40;99.90
13673;DHT22;6909;52.202;9.876;2022-08-20T12:39:29;21.60;99.90
13673;DHT22;6909;52.202;9.876;2022-08-20T12:41:57;21.90;99.90
13673;DHT22;6909;52.202;9.876;2022-08-20T12:44:24;22.50;99.90
13673;DHT22;6909;52.202;9.876;2022-08-20T12:46:51;22.80;1.00
13673;DHT22;6909;52.202;9.876;2022-08-20T12:49:18;23.10;24.00
13673;DHT22;6909;52.202;9.876;2022-08-20T12:51:44;23.20;1.00
13673;DHT22;6909;52.202;9.876;2022-08-20T12:54:12;23.30;1.00
13673;DHT22;6909;52.202;9.876;2022-08-20T12:56:39;23.40;1.00
13673;DHT22;6909;52.202;9.876;2022-08-20T12:59:05;22.90;1.00
13673;DHT22;6909;52.202;9.876;2022-08-20T13:01:32;22.90;1.00
13673;DHT22;6909;52.202;9.876;2022-08-20T13:03:58;23.10;1.00
13673;DHT22;6909;52.202;9.876;2022-08-20T13:06:25;23.20;99.90
13673;DHT22;6909;52.202;9.876;2022-08-20T13:08:52;23.30;1.00
13673;DHT22;6909;52.202;9.876;2022-08-20T13:11:20;23.50;1.00
13673;DHT22;6909;52.202;9.876;2022-08-20T13:13:47;23.20;97.90
13673;DHT22;6909;52.202;9.876;2022-08-20T13:16:13;22.80;99.90
13673;DHT22;6909;52.202;9.876;2022-08-20T13:18:41;23.00;1.00
13673;DHT22;6909;52.202;9.876;2022-08-20T13:21:08;23.00;1.00
13673;DHT22;6909;52.202;9.876;2022-08-20T13:23:34;23.10;1.00
13673;DHT22;6909;52.202;9.876;2022-08-20T13:26:01;23.30;1.00
13673;DHT22;6909;52.202;9.876;2022-08-20T13:28:30;23.30;99.90
13673;DHT22;6909;52.202;9.876;2022-08-20T13:30:57;23.50;99.90
13673;DHT22;6909;52.202;9.876;2022-08-20T13:33:26;23.60;97.00
13673;DHT22;6909;52.202;9.876;2022-08-20T13:35:53;23.60;1.00
13673;DHT22;6909;52.202;9.876;2022-08-20T13:38:20;23.80;20.30
13673;DHT22;6909;52.202;9.876;2022-08-20T13:40:47;23.40;99.90
13673;DHT22;6909;52.202;9.876;2022-08-20T13:43:14;23.20;1.00
13673;DHT22;6909;52.202;9.876;2022-08-20T13:45:42;23.00;1.00
13673;DHT22;6909;52.202;9.876;2022-08-20T13:48:09;22.90;1.00
13673;DHT22;6909;52.202;9.876;2022-08-20T13:50:35;23.10;1.00
13673;DHT22;6909;52.202;9.876;2022-08-20T13:53:03;23.10;1.00
13673;DHT22;6909;52.202;9.876;2022-08-20T13:55:29;23.10;1.00
13673;DHT22;6909;52.202;9.876;2022-08-20T13:57:56;23.00;99.90
13673;DHT22;6909;52.202;9.876;2022-08-20T14:00:25;23.10;99.90
13673;DHT22;6909;52.202;9.876;2022-08-20T14:02:54;23.00;99.90
13673;DHT22;6909;52.202;9.876;2022-08-20T14:05:20;23.10;99.90
13673;DHT22;6909;52.202;9.876;2022-08-20T14:07:48;23.10;99.90
13673;DHT22;6909;52.202;9.876;2022-08-20T14:10:17;23.20;38.70
13673;DHT22;6909;52.202;9.876;2022-08-20T14:12:45;23.20;1.00
13673;DHT22;6909;52.202;9.876;2022-08-20T14:15:11;23.30;1.00
13673;DHT22;6909;52.202;9.876;2022-08-20T14:17:40;23.40;1.00
13673;DHT22;6909;52.202;9.876;2022-08-20T14:20:11;23.30;1.00
13673;DHT22;6909;52.202;9.876;2022-08-20T14:22:38;23.40;99.90
13673;DHT22;6909;52.202;9.876;2022-08-20T14:25:06;23.50;99.90
13673;DHT22;6909;52.202;9.876;2022-08-20T14:27:34;23.40;99.90
13673;DHT22;6909;52.202;9.876;2022-08-20T14:30:02;23.60;1.00
13673;DHT22;6909;52.202;9.876;2022-08-20T14:32:29;23.70;1.00
13673;DHT22;6909;52.202;9.876;2022-08-20T14:34:56;23.90;1.00
13673;DHT22;6909;52.202;9.876;2022-08-20T14:37:27;24.00;1.00
13673;DHT22;6909;52.202;9.876;2022-08-20T14:39:55;24.10;1.00
13673;DHT22;6909;52.202;9.876;2022-08-20T14:42:23;24.20;1.00
13673;DHT22;6909;52.202;9.876;2022-08-20T14:44:53;24.30;1.00
13673;DHT22;6909;52.202;9.876;2022-08-20T14:47:21;24.40;1.00
13673;DHT22;6909;52.202;9.876;2022-08-20T14:49:50;24.40;1.00
13673;DHT22;6909;52.202;9.876;2022-08-20T14:52:19;24.60;99.90
13673;DHT22;6909;52.202;9.876;2022-08-20T14:54:47;24.70;99.90
13673;DHT22;6909;52.202;9.876;2022-08-20T14:57:17;24.70;99.90
13673;DHT22;6909;52.202;9.876;2022-08-20T14:59:44;24.70;36.70
13673;DHT22;6909;52.202;9.876;2022-08-20T15:02:13;24.60;1.00
13673;DHT22;6909;52.202;9.876;2022-08-20T15:04:41;24.80;1.00
13673;DHT22;6909;52.202;9.876;2022-08-20T15:07:14;25.00;1.00
13673;DHT22;6909;52.202;9.876;2022-08-20T15:09:41;24.90;1.00
13673;DHT22;6909;52.202;9.876;2022-08-20T15:12:09;24.90;1.00
13673;DHT22;6909;52.202;9.876;2022-08-20T15:14:36;25.00;1.00
13673;DHT22;6909;52.202;9.876;2022-08-20T15:17:02;24.80;1.00
13673;DHT22;6909;52.202;9.876;2022-08-20T15:19:29;24.80;1.00
13673;DHT22;6909;52.202;9.876;2022-08-20T15:21:56;24.70;1.00
13673;DHT22;6909;52.202;9.876;2022-08-20T15:24:22;24.80;1.00
13673;DHT22;6909;52.202;9.876;2022-08-20T15:26:49;24.70;1.00
13673;DHT22;6909;52.202;9.876;2022-08-20T15:29:17;24.60;1.00
13673;DHT22;6909;52.202;9.876;2022-08-20T15:31:44;24.60;1.00
13673;DHT22;6909;52.202;9.876;2022-08-20T15:34:10;24.40;1.00
13673;DHT22;6909;52.202;9.876;2022-08-20T15:36:37;24.30;1.00
13673;DHT22;6909;52.202;9.876;2022-08-20T15:39:03;24.00;1.00
13673;DHT22;6909;52.202;9.876;2022-08-20T15:41:30;23.70;1.00
13673;DHT22;6909;52.202;9.876;2022-08-20T15:43:57;23.70;1.00
13673;DHT22;6909;52.202;9.876;2022-08-20T15:46:25;23.60;1.00
13673;DHT22;6909;52.202;9.876;2022-08-20T15:48:51;23.60;1.00
13673;DHT22;6909;52.202;9.876;2022-08-20T15:51:23;23.60;1.00
13673;DHT22;6909;52.202;9.876;2022-08-20T15:53:58;23.50;1.00
13673;DHT22;6909;52.202;9.876;2022-08-20T15:56:46;23.50;1.00
13673;DHT22;6909;52.202;9.876;2022-08-20T15:59:51;23.40;1.00
13673;DHT22;6909;52.202;9.876;2022-08-20T16:05:32;23.60;1.00
13673;DHT22;6909;52.202;9.876;2022-08-20T16:08:07;23.50;1.00